EGNO

Warton Airport

Warton, United Kingdom
METAR EGNO 161350Z 27019KT 9999 SCT024 17/11 Q1010
Observed Flight Rules
Aug-16 @ 13:50 UTC (26 minutes ago) Visual Flight Rules
Wind Visibility Clouds
270° at 19 knots 10,000+ meters
  • Scattered at 2,400' AGL
Temperatures Readings
Current 17°C / 63°F
Dewpoint 11°C / 52°F
Humidity 68%
Altimeter 29.82" Hg
Pressure 1010 hPa
Elevation 17
METAR EGNO 161350Z 27019KT 9999 SCT024 17/11 Q1010
Observed Flight Rules
Aug-16 @ 13:50 UTC
(26 minutes ago)
VFR
Wind Visibility
270° at 19 knots 10,000+ meters
Clouds
  • Scattered at 2,400' AGL
Temperature Dewpoint
17°C / 63°F 11°C / 52°F
Humidity Altimeter Pressure
68% 29.82" Hg 1010 hPa